sensor_id;sensor_type;location;lat;lon;timestamp;temperature;humidity
26224;DHT22;14820;48.682;8.890;2023-07-09T00:01:53;20.20;99.90
26224;DHT22;14820;48.682;8.890;2023-07-09T00:04:18;20.10;99.90
26224;DHT22;14820;48.682;8.890;2023-07-09T00:06:44;20.10;99.90
26224;DHT22;14820;48.682;8.890;2023-07-09T00:09:16;20.00;99.90
26224;DHT22;14820;48.682;8.890;2023-07-09T00:11:43;20.00;99.90
26224;DHT22;14820;48.682;8.890;2023-07-09T00:14:13;20.00;99.90
26224;DHT22;14820;48.682;8.890;2023-07-09T00:16:40;20.10;99.90
26224;DHT22;14820;48.682;8.890;2023-07-09T00:19:14;20.00;99.90
26224;DHT22;14820;48.682;8.890;2023-07-09T00:21:42;20.00;99.90
26224;DHT22;14820;48.682;8.890;2023-07-09T00:24:13;20.00;99.90
26224;DHT22;14820;48.682;8.890;2023-07-09T00:26:40;20.00;99.90
26224;DHT22;14820;48.682;8.890;2023-07-09T00:29:17;20.00;99.90
26224;DHT22;14820;48.682;8.890;2023-07-09T00:31:43;19.90;99.90
26224;DHT22;14820;48.682;8.890;2023-07-09T00:34:10;19.90;99.90
26224;DHT22;14820;48.682;8.890;2023-07-09T00:36:37;19.90;99.90
26224;DHT22;14820;48.682;8.890;2023-07-09T00:39:03;19.90;99.90
26224;DHT22;14820;48.682;8.890;2023-07-09T00:41:37;19.90;99.90
26224;DHT22;14820;48.682;8.890;2023-07-09T00:44:27;19.80;99.90
26224;DHT22;14820;48.682;8.890;2023-07-09T00:49:36;19.70;99.90
26224;DHT22;14820;48.682;8.890;2023-07-09T00:52:26;19.60;99.90
26224;DHT22;14820;48.682;8.890;2023-07-09T00:54:56;19.70;99.90
26224;DHT22;14820;48.682;8.890;2023-07-09T00:57:25;19.70;99.90
26224;DHT22;14820;48.682;8.890;2023-07-09T00:59:56;19.70;99.90
26224;DHT22;14820;48.682;8.890;2023-07-09T01:02:25;19.60;99.90
26224;DHT22;14820;48.682;8.890;2023-07-09T01:04:58;19.60;99.90
26224;DHT22;14820;48.682;8.890;2023-07-09T01:07:27;19.50;99.90
26224;DHT22;14820;48.682;8.890;2023-07-09T01:09:53;19.50;99.90
26224;DHT22;14820;48.682;8.890;2023-07-09T01:12:20;19.40;99.90
26224;DHT22;14820;48.682;8.890;2023-07-09T01:14:48;19.40;99.90
26224;DHT22;14820;48.682;8.890;2023-07-09T01:17:17;19.30;99.90
26224;DHT22;14820;48.682;8.890;2023-07-09T01:19:50;19.20;99.90
26224;DHT22;14820;48.682;8.890;2023-07-09T01:22:18;19.10;99.90
26224;DHT22;14820;48.682;8.890;2023-07-09T01:24:48;19.10;99.90
26224;DHT22;14820;48.682;8.890;2023-07-09T01:27:15;19.00;99.90
26224;DHT22;14820;48.682;8.890;2023-07-09T01:29:43;19.00;99.90
26224;DHT22;14820;48.682;8.890;2023-07-09T01:32:13;19.00;99.90
26224;DHT22;14820;48.682;8.890;2023-07-09T01:34:39;19.00;99.90
26224;DHT22;14820;48.682;8.890;2023-07-09T01:37:06;19.00;99.90
26224;DHT22;14820;48.682;8.890;2023-07-09T01:39:32;19.10;99.90
26224;DHT22;14820;48.682;8.890;2023-07-09T01:41:57;19.00;99.90
26224;DHT22;14820;48.682;8.890;2023-07-09T01:44:23;18.90;99.90
26224;DHT22;14820;48.682;8.890;2023-07-09T01:46:48;18.90;99.90
26224;DHT22;14820;48.682;8.890;2023-07-09T01:49:14;18.90;99.90
26224;DHT22;14820;48.682;8.890;2023-07-09T01:51:40;18.80;99.90
26224;DHT22;14820;48.682;8.890;2023-07-09T01:54:06;18.80;99.90
26224;DHT22;14820;48.682;8.890;2023-07-09T01:56:32;18.70;99.90
26224;DHT22;14820;48.682;8.890;2023-07-09T01:58:57;18.70;99.90
26224;DHT22;14820;48.682;8.890;2023-07-09T02:01:28;18.70;99.90
26224;DHT22;14820;48.682;8.890;2023-07-09T02:03:54;18.60;99.90
26224;DHT22;14820;48.682;8.890;2023-07-09T02:06:20;18.60;99.90
26224;DHT22;14820;48.682;8.890;2023-07-09T02:08:45;18.50;99.90
26224;DHT22;14820;48.682;8.890;2023-07-09T02:11:11;18.50;99.90
26224;DHT22;14820;48.682;8.890;2023-07-09T02:13:37;18.50;99.90
26224;DHT22;14820;48.682;8.890;2023-07-09T02:16:02;18.50;99.90
26224;DHT22;14820;48.682;8.890;2023-07-09T02:18:29;18.50;99.90
26224;DHT22;14820;48.682;8.890;2023-07-09T02:20:54;18.40;99.90
26224;DHT22;14820;48.682;8.890;2023-07-09T02:23:25;18.40;99.90
26224;DHT22;14820;48.682;8.890;2023-07-09T02:25:51;18.30;99.90
26224;DHT22;14820;48.682;8.890;2023-07-09T02:28:16;18.40;99.90
26224;DHT22;14820;48.682;8.890;2023-07-09T02:30:42;18.30;99.90
26224;DHT22;14820;48.682;8.890;2023-07-09T02:33:07;18.30;99.90
26224;DHT22;14820;48.682;8.890;2023-07-09T02:35:33;18.30;99.90
26224;DHT22;14820;48.682;8.890;2023-07-09T02:38:01;18.20;99.90
26224;DHT22;14820;48.682;8.890;2023-07-09T02:40:27;18.20;99.90
26224;DHT22;14820;48.682;8.890;2023-07-09T02:42:52;18.10;99.90
26224;DHT22;14820;48.682;8.890;2023-07-09T02:45:18;18.10;99.90
26224;DHT22;14820;48.682;8.890;2023-07-09T02:47:44;18.10;99.90
26224;DHT22;14820;48.682;8.890;2023-07-09T02:50:10;18.10;99.90
26224;DHT22;14820;48.682;8.890;2023-07-09T02:52:35;18.00;99.90
26224;DHT22;14820;48.682;8.890;2023-07-09T02:55:01;18.10;99.90
26224;DHT22;14820;48.682;8.890;2023-07-09T02:57:26;18.00;99.90
26224;DHT22;14820;48.682;8.890;2023-07-09T02:59:52;18.00;99.90
26224;DHT22;14820;48.682;8.890;2023-07-09T03:02:18;18.00;99.90
26224;DHT22;14820;48.682;8.890;2023-07-09T03:04:43;18.00;99.90
26224;DHT22;14820;48.682;8.890;2023-07-09T03:07:09;17.90;99.90
26224;DHT22;14820;48.682;8.890;2023-07-09T03:09:34;18.00;99.90
26224;DHT22;14820;48.682;8.890;2023-07-09T03:12:00;18.00;99.90
26224;DHT22;14820;48.682;8.890;2023-07-09T03:14:26;18.00;99.90
26224;DHT22;14820;48.682;8.890;2023-07-09T03:16:51;18.00;99.90
26224;DHT22;14820;48.682;8.890;2023-07-09T03:19:17;17.90;99.90
26224;DHT22;14820;48.682;8.890;2023-07-09T03:21:43;17.90;99.90
26224;DHT22;14820;48.682;8.890;2023-07-09T03:24:08;17.90;99.90
26224;DHT22;14820;48.682;8.890;2023-07-09T03:26:34;17.80;99.90
26224;DHT22;14820;48.682;8.890;2023-07-09T03:29:00;17.80;99.90
26224;DHT22;14820;48.682;8.890;2023-07-09T03:31:26;17.80;99.90
26224;DHT22;14820;48.682;8.890;2023-07-09T03:33:52;17.80;99.90
26224;DHT22;14820;48.682;8.890;2023-07-09T03:36:19;17.80;99.90
26224;DHT22;14820;48.682;8.890;2023-07-09T03:38:48;17.80;99.90
26224;DHT22;14820;48.682;8.890;2023-07-09T03:41:14;17.80;99.90
26224;DHT22;14820;48.682;8.890;2023-07-09T03:43:40;17.80;99.90
26224;DHT22;14820;48.682;8.890;2023-07-09T03:46:05;17.80;99.90
26224;DHT22;14820;48.682;8.890;2023-07-09T03:48:31;17.80;99.90
26224;DHT22;14820;48.682;8.890;2023-07-09T03:50:56;17.80;99.90
26224;DHT22;14820;48.682;8.890;2023-07-09T03:53:22;17.70;99.90
26224;DHT22;14820;48.682;8.890;2023-07-09T03:55:53;17.70;99.90
26224;DHT22;14820;48.682;8.890;2023-07-09T03:58:19;17.70;99.90
26224;DHT22;14820;48.682;8.890;2023-07-09T04:00:45;17.60;99.90
26224;DHT22;14820;48.682;8.890;2023-07-09T04:03:10;17.60;99.90
26224;DHT22;14820;48.682;8.890;2023-07-09T04:05:37;17.50;99.90
26224;DHT22;14820;48.682;8.890;2023-07-09T04:08:03;17.60;99.90
26224;DHT22;14820;48.682;8.890;2023-07-09T04:10:29;17.50;99.90
26224;DHT22;14820;48.682;8.890;2023-07-09T04:12:54;17.60;99.90
26224;DHT22;14820;48.682;8.890;2023-07-09T04:15:20;17.60;99.90
26224;DHT22;14820;48.682;8.890;2023-07-09T04:17:45;17.60;99.90
26224;DHT22;14820;48.682;8.890;2023-07-09T04:20:11;17.60;99.90
26224;DHT22;14820;48.682;8.890;2023-07-09T04:22:39;17.50;99.90
26224;DHT22;14820;48.682;8.890;2023-07-09T04:25:06;17.60;99.90
26224;DHT22;14820;48.682;8.890;2023-07-09T04:27:32;17.60;99.90
26224;DHT22;14820;48.682;8.890;2023-07-09T04:29:59;17.60;99.90
26224;DHT22;14820;48.682;8.890;2023-07-09T04:32:25;17.60;99.90
26224;DHT22;14820;48.682;8.890;2023-07-09T04:34:50;17.50;99.90
26224;DHT22;14820;48.682;8.890;2023-07-09T04:37:17;17.60;99.90
26224;DHT22;14820;48.682;8.890;2023-07-09T04:39:43;17.70;99.90
26224;DHT22;14820;48.682;8.890;2023-07-09T04:42:14;17.70;99.90
26224;DHT22;14820;48.682;8.890;2023-07-09T04:44:40;17.90;99.90
26224;DHT22;14820;48.682;8.890;2023-07-09T04:47:06;18.00;99.90
26224;DHT22;14820;48.682;8.890;2023-07-09T04:49:32;18.00;99.90
26224;DHT22;14820;48.682;8.890;2023-07-09T04:51:58;18.00;99.90
26224;DHT22;14820;48.682;8.890;2023-07-09T04:54:25;18.10;99.90
26224;DHT22;14820;48.682;8.890;2023-07-09T04:56:50;18.10;99.90
26224;DHT22;14820;48.682;8.890;2023-07-09T04:59:16;18.10;99.90
26224;DHT22;14820;48.682;8.890;2023-07-09T05:01:42;18.10;99.90
26224;DHT22;14820;48.682;8.890;2023-07-09T05:04:08;18.10;99.90
26224;DHT22;14820;48.682;8.890;2023-07-09T05:06:34;18.20;99.90
26224;DHT22;14820;48.682;8.890;2023-07-09T05:09:00;18.30;99.90
26224;DHT22;14820;48.682;8.890;2023-07-09T05:11:26;18.40;99.90
26224;DHT22;14820;48.682;8.890;2023-07-09T05:13:52;18.50;99.90
26224;DHT22;14820;48.682;8.890;2023-07-09T05:16:18;18.60;99.90
26224;DHT22;14820;48.682;8.890;2023-07-09T05:18:45;18.60;99.90
26224;DHT22;14820;48.682;8.890;2023-07-09T05:21:11;18.70;99.90
26224;DHT22;14820;48.682;8.890;2023-07-09T05:23:37;18.70;99.90
26224;DHT22;14820;48.682;8.890;2023-07-09T05:26:03;18.80;99.90
26224;DHT22;14820;48.682;8.890;2023-07-09T05:28:30;18.80;99.90
26224;DHT22;14820;48.682;8.890;2023-07-09T05:30:58;18.90;99.90
26224;DHT22;14820;48.682;8.890;2023-07-09T05:33:24;18.90;99.90
26224;DHT22;14820;48.682;8.890;2023-07-09T05:35:49;19.00;99.90
26224;DHT22;14820;48.682;8.890;2023-07-09T05:38:15;19.00;99.90
26224;DHT22;14820;48.682;8.890;2023-07-09T05:40:42;19.00;99.90
26224;DHT22;14820;48.682;8.890;2023-07-09T05:43:09;19.10;99.90
26224;DHT22;14820;48.682;8.890;2023-07-09T05:45:35;19.10;99.90
26224;DHT22;14820;48.682;8.890;2023-07-09T05:48:01;19.20;99.90
26224;DHT22;14820;48.682;8.890;2023-07-09T05:50:27;19.20;99.90
26224;DHT22;14820;48.682;8.890;2023-07-09T05:52:54;19.30;99.90
26224;DHT22;14820;48.682;8.890;2023-07-09T05:55:20;19.40;99.90
26224;DHT22;14820;48.682;8.890;2023-07-09T05:57:46;19.50;99.90
26224;DHT22;14820;48.682;8.890;2023-07-09T06:00:12;19.50;99.90
26224;DHT22;14820;48.682;8.890;2023-07-09T06:02:38;19.60;99.90
26224;DHT22;14820;48.682;8.890;2023-07-09T06:05:04;19.70;99.90
26224;DHT22;14820;48.682;8.890;2023-07-09T06:07:30;19.70;99.90
26224;DHT22;14820;48.682;8.890;2023-07-09T06:09:56;19.80;99.90
26224;DHT22;14820;48.682;8.890;2023-07-09T06:12:22;19.90;99.90
26224;DHT22;14820;48.682;8.890;2023-07-09T06:14:48;20.00;99.90
26224;DHT22;14820;48.682;8.890;2023-07-09T06:17:14;20.10;99.90
26224;DHT22;14820;48.682;8.890;2023-07-09T06:19:40;20.20;99.90
26224;DHT22;14820;48.682;8.890;2023-07-09T06:22:06;20.30;99.90
26224;DHT22;14820;48.682;8.890;2023-07-09T06:24:32;20.40;99.90
26224;DHT22;14820;48.682;8.890;2023-07-09T06:26:57;20.50;99.90
26224;DHT22;14820;48.682;8.890;2023-07-09T06:29:24;20.70;99.90
26224;DHT22;14820;48.682;8.890;2023-07-09T06:31:50;20.90;99.90
26224;DHT22;14820;48.682;8.890;2023-07-09T06:34:16;21.00;99.90
26224;DHT22;14820;48.682;8.890;2023-07-09T06:36:42;21.20;99.90
26224;DHT22;14820;48.682;8.890;2023-07-09T06:39:07;21.40;99.90
26224;DHT22;14820;48.682;8.890;2023-07-09T06:41:33;21.50;99.90
26224;DHT22;14820;48.682;8.890;2023-07-09T06:44:05;21.70;99.90
26224;DHT22;14820;48.682;8.890;2023-07-09T06:46:31;21.80;99.90
26224;DHT22;14820;48.682;8.890;2023-07-09T06:48:57;21.90;99.90
26224;DHT22;14820;48.682;8.890;2023-07-09T06:51:23;22.00;99.90
26224;DHT22;14820;48.682;8.890;2023-07-09T06:53:48;22.00;99.90
26224;DHT22;14820;48.682;8.890;2023-07-09T06:56:16;22.20;99.90
26224;DHT22;14820;48.682;8.890;2023-07-09T06:58:41;22.30;99.90
26224;DHT22;14820;48.682;8.890;2023-07-09T07:01:07;22.50;99.90
26224;DHT22;14820;48.682;8.890;2023-07-09T07:03:35;22.60;99.90
26224;DHT22;14820;48.682;8.890;2023-07-09T07:06:01;22.80;99.90
26224;DHT22;14820;48.682;8.890;2023-07-09T07:08:27;22.90;99.90
26224;DHT22;14820;48.682;8.890;2023-07-09T07:10:57;23.10;99.90
26224;DHT22;14820;48.682;8.890;2023-07-09T07:13:37;23.20;99.90
26224;DHT22;14820;48.682;8.890;2023-07-09T07:16:05;23.30;99.90
26224;DHT22;14820;48.682;8.890;2023-07-09T07:18:31;23.40;99.90
26224;DHT22;14820;48.682;8.890;2023-07-09T07:20:57;23.60;99.90
26224;DHT22;14820;48.682;8.890;2023-07-09T07:23:23;23.70;99.90
26224;DHT22;14820;48.682;8.890;2023-07-09T07:25:49;23.80;99.90
26224;DHT22;14820;48.682;8.890;2023-07-09T07:28:15;24.10;99.90
26224;DHT22;14820;48.682;8.890;2023-07-09T07:30:41;24.20;99.90
26224;DHT22;14820;48.682;8.890;2023-07-09T07:33:08;24.40;99.90
26224;DHT22;14820;48.682;8.890;2023-07-09T07:35:34;24.50;99.90
26224;DHT22;14820;48.682;8.890;2023-07-09T07:38:00;24.70;99.90
26224;DHT22;14820;48.682;8.890;2023-07-09T07:40:25;24.80;99.90
26224;DHT22;14820;48.682;8.890;2023-07-09T07:42:51;24.90;99.90
26224;DHT22;14820;48.682;8.890;2023-07-09T07:45:17;25.00;99.90
26224;DHT22;14820;48.682;8.890;2023-07-09T07:47:43;25.10;99.90
26224;DHT22;14820;48.682;8.890;2023-07-09T07:50:09;25.20;99.90
26224;DHT22;14820;48.682;8.890;2023-07-09T07:52:34;25.40;99.90
26224;DHT22;14820;48.682;8.890;2023-07-09T07:55:07;25.50;99.90
26224;DHT22;14820;48.682;8.890;2023-07-09T07:57:33;25.60;99.90
26224;DHT22;14820;48.682;8.890;2023-07-09T07:59:59;25.80;99.90
26224;DHT22;14820;48.682;8.890;2023-07-09T08:02:25;25.90;99.90
26224;DHT22;14820;48.682;8.890;2023-07-09T08:04:51;26.00;99.90
26224;DHT22;14820;48.682;8.890;2023-07-09T08:07:18;26.20;99.90
26224;DHT22;14820;48.682;8.890;2023-07-09T08:09:44;26.30;99.90
26224;DHT22;14820;48.682;8.890;2023-07-09T08:12:10;26.40;99.90
26224;DHT22;14820;48.682;8.890;2023-07-09T08:14:37;26.50;99.90
26224;DHT22;14820;48.682;8.890;2023-07-09T08:17:03;26.50;99.90
26224;DHT22;14820;48.682;8.890;2023-07-09T08:19:30;26.60;99.90
26224;DHT22;14820;48.682;8.890;2023-07-09T08:21:55;26.70;99.90
26224;DHT22;14820;48.682;8.890;2023-07-09T08:24:21;26.80;99.90
26224;DHT22;14820;48.682;8.890;2023-07-09T08:26:46;26.90;99.90
26224;DHT22;14820;48.682;8.890;2023-07-09T08:29:12;27.00;99.90
26224;DHT22;14820;48.682;8.890;2023-07-09T08:31:38;27.30;99.90
26224;DHT22;14820;48.682;8.890;2023-07-09T08:34:06;27.30;99.90
26224;DHT22;14820;48.682;8.890;2023-07-09T08:36:32;27.40;98.50
26224;DHT22;14820;48.682;8.890;2023-07-09T08:38:58;27.40;97.70
26224;DHT22;14820;48.682;8.890;2023-07-09T08:41:45;27.50;97.40
26224;DHT22;14820;48.682;8.890;2023-07-09T08:49:46;27.50;96.00
26224;DHT22;14820;48.682;8.890;2023-07-09T08:52:35;27.60;96.00
26224;DHT22;14820;48.682;8.890;2023-07-09T08:55:21;27.80;95.60
26224;DHT22;14820;48.682;8.890;2023-07-09T08:58:14;27.90;95.00
26224;DHT22;14820;48.682;8.890;2023-07-09T09:00:53;28.00;94.40
26224;DHT22;14820;48.682;8.890;2023-07-09T09:05:47;28.10;92.90
26224;DHT22;14820;48.682;8.890;2023-07-09T09:11:07;28.10;94.00
26224;DHT22;14820;48.682;8.890;2023-07-09T09:13:36;28.20;94.00
26224;DHT22;14820;48.682;8.890;2023-07-09T09:16:10;28.30;93.90
26224;DHT22;14820;48.682;8.890;2023-07-09T09:18:41;28.30;93.30
26224;DHT22;14820;48.682;8.890;2023-07-09T09:21:21;28.30;93.20
26224;DHT22;14820;48.682;8.890;2023-07-09T09:23:54;28.30;93.30
26224;DHT22;14820;48.682;8.890;2023-07-09T09:26:29;28.40;93.10
26224;DHT22;14820;48.682;8.890;2023-07-09T09:28:56;28.60;93.10
26224;DHT22;14820;48.682;8.890;2023-07-09T09:31:24;28.70;91.80
26224;DHT22;14820;48.682;8.890;2023-07-09T09:33:51;28.70;92.30
26224;DHT22;14820;48.682;8.890;2023-07-09T09:36:25;28.70;91.90
26224;DHT22;14820;48.682;8.890;2023-07-09T09:38:52;28.90;92.10
26224;DHT22;14820;48.682;8.890;2023-07-09T09:41:25;29.00;91.70
26224;DHT22;14820;48.682;8.890;2023-07-09T09:43:55;29.10;91.00
26224;DHT22;14820;48.682;8.890;2023-07-09T09:46:24;29.20;90.00
26224;DHT22;14820;48.682;8.890;2023-07-09T09:48:54;29.10;89.40
26224;DHT22;14820;48.682;8.890;2023-07-09T09:51:20;29.20;88.70
26224;DHT22;14820;48.682;8.890;2023-07-09T09:53:51;29.20;88.70
26224;DHT22;14820;48.682;8.890;2023-07-09T09:56:35;29.20;88.30
26224;DHT22;14820;48.682;8.890;2023-07-09T09:59:02;29.30;86.60
26224;DHT22;14820;48.682;8.890;2023-07-09T10:01:31;29.30;87.50
26224;DHT22;14820;48.682;8.890;2023-07-09T10:03:59;29.30;86.30
26224;DHT22;14820;48.682;8.890;2023-07-09T10:06:38;29.40;85.30
26224;DHT22;14820;48.682;8.890;2023-07-09T10:09:20;29.50;85.70
26224;DHT22;14820;48.682;8.890;2023-07-09T10:21:31;29.90;82.10
26224;DHT22;14820;48.682;8.890;2023-07-09T10:23:43;30.00;81.20
26224;DHT22;14820;48.682;8.890;2023-07-09T10:26:14;30.10;80.40
26224;DHT22;14820;48.682;8.890;2023-07-09T10:32:01;30.30;79.50
26224;DHT22;14820;48.682;8.890;2023-07-09T10:40:10;30.30;74.30
26224;DHT22;14820;48.682;8.890;2023-07-09T10:42:44;30.40;74.50
26224;DHT22;14820;48.682;8.890;2023-07-09T10:45:26;30.40;74.30
26224;DHT22;14820;48.682;8.890;2023-07-09T10:48:06;30.50;74.10
26224;DHT22;14820;48.682;8.890;2023-07-09T10:50:37;30.50;73.70
26224;DHT22;14820;48.682;8.890;2023-07-09T10:56:15;30.60;72.00
26224;DHT22;14820;48.682;8.890;2023-07-09T11:01:16;30.70;72.30
26224;DHT22;14820;48.682;8.890;2023-07-09T11:03:52;30.80;72.00
26224;DHT22;14820;48.682;8.890;2023-07-09T11:06:41;30.90;72.20
26224;DHT22;14820;48.682;8.890;2023-07-09T11:09:29;31.10;72.30
26224;DHT22;14820;48.682;8.890;2023-07-09T11:11:58;31.10;71.00
26224;DHT22;14820;48.682;8.890;2023-07-09T11:15:27;31.10;72.20
26224;DHT22;14820;48.682;8.890;2023-07-09T11:17:28;31.20;71.40
26224;DHT22;14820;48.682;8.890;2023-07-09T11:19:58;31.40;71.50
26224;DHT22;14820;48.682;8.890;2023-07-09T11:22:27;31.40;70.90
26224;DHT22;14820;48.682;8.890;2023-07-09T11:25:10;31.50;70.70
26224;DHT22;14820;48.682;8.890;2023-07-09T11:27:50;31.40;70.70
26224;DHT22;14820;48.682;8.890;2023-07-09T11:30:20;31.50;69.60
26224;DHT22;14820;48.682;8.890;2023-07-09T11:32:59;31.60;69.40
26224;DHT22;14820;48.682;8.890;2023-07-09T11:35:28;31.50;69.10
26224;DHT22;14820;48.682;8.890;2023-07-09T11:37:54;31.50;69.60
26224;DHT22;14820;48.682;8.890;2023-07-09T11:40:21;31.60;67.60
26224;DHT22;14820;48.682;8.890;2023-07-09T11:42:53;31.50;69.70
26224;DHT22;14820;48.682;8.890;2023-07-09T11:45:32;31.40;69.90
26224;DHT22;14820;48.682;8.890;2023-07-09T11:48:27;31.50;67.60
26224;DHT22;14820;48.682;8.890;2023-07-09T11:50:56;31.50;67.30
26224;DHT22;14820;48.682;8.890;2023-07-09T11:53:41;31.60;68.20
26224;DHT22;14820;48.682;8.890;2023-07-09T11:56:09;31.70;67.50
26224;DHT22;14820;48.682;8.890;2023-07-09T11:58:35;31.80;67.00
26224;DHT22;14820;48.682;8.890;2023-07-09T12:01:01;31.80;67.50
26224;DHT22;14820;48.682;8.890;2023-07-09T12:03:38;31.80;67.40
26224;DHT22;14820;48.682;8.890;2023-07-09T12:06:28;31.90;65.80
26224;DHT22;14820;48.682;8.890;2023-07-09T12:08:55;32.00;65.60
26224;DHT22;14820;48.682;8.890;2023-07-09T12:11:24;32.10;66.00
26224;DHT22;14820;48.682;8.890;2023-07-09T12:13:51;32.10;64.80
26224;DHT22;14820;48.682;8.890;2023-07-09T12:16:32;32.10;61.80
26224;DHT22;14820;48.682;8.890;2023-07-09T12:18:58;32.10;63.10
26224;DHT22;14820;48.682;8.890;2023-07-09T12:21:25;32.10;62.00
26224;DHT22;14820;48.682;8.890;2023-07-09T12:23:52;32.20;61.50
26224;DHT22;14820;48.682;8.890;2023-07-09T12:26:19;32.20;62.20
26224;DHT22;14820;48.682;8.890;2023-07-09T12:28:56;32.30;61.40
26224;DHT22;14820;48.682;8.890;2023-07-09T12:31:28;32.30;61.20
26224;DHT22;14820;48.682;8.890;2023-07-09T12:33:55;32.50;59.60
26224;DHT22;14820;48.682;8.890;2023-07-09T12:36:21;32.60;59.70
26224;DHT22;14820;48.682;8.890;2023-07-09T12:38:51;32.50;58.90
26224;DHT22;14820;48.682;8.890;2023-07-09T12:41:38;32.50;58.90
26224;DHT22;14820;48.682;8.890;2023-07-09T12:44:05;32.60;57.70
26224;DHT22;14820;48.682;8.890;2023-07-09T12:46:31;32.60;56.50
26224;DHT22;14820;48.682;8.890;2023-07-09T12:48:57;32.50;57.00
26224;DHT22;14820;48.682;8.890;2023-07-09T12:51:27;32.50;57.10
26224;DHT22;14820;48.682;8.890;2023-07-09T12:54:14;32.50;56.80
26224;DHT22;14820;48.682;8.890;2023-07-09T12:56:41;32.50;57.00
26224;DHT22;14820;48.682;8.890;2023-07-09T12:59:37;32.60;56.90
26224;DHT22;14820;48.682;8.890;2023-07-09T13:02:22;32.60;57.00
26224;DHT22;14820;48.682;8.890;2023-07-09T13:04:49;32.70;56.60
26224;DHT22;14820;48.682;8.890;2023-07-09T13:09:54;32.90;54.30
26224;DHT22;14820;48.682;8.890;2023-07-09T13:12:27;32.90;55.00
26224;DHT22;14820;48.682;8.890;2023-07-09T13:14:54;32.90;54.30
26224;DHT22;14820;48.682;8.890;2023-07-09T13:17:20;32.90;54.40
26224;DHT22;14820;48.682;8.890;2023-07-09T13:19:46;33.10;55.20
26224;DHT22;14820;48.682;8.890;2023-07-09T13:22:16;33.10;53.80
26224;DHT22;14820;48.682;8.890;2023-07-09T13:24:42;33.30;52.70
26224;DHT22;14820;48.682;8.890;2023-07-09T13:27:12;33.10;53.40
26224;DHT22;14820;48.682;8.890;2023-07-09T13:29:39;33.10;54.90
26224;DHT22;14820;48.682;8.890;2023-07-09T13:32:09;33.20;53.20
26224;DHT22;14820;48.682;8.890;2023-07-09T13:34:36;33.20;54.60
26224;DHT22;14820;48.682;8.890;2023-07-09T13:37:01;33.20;53.70
26224;DHT22;14820;48.682;8.890;2023-07-09T13:39:27;33.10;53.80
26224;DHT22;14820;48.682;8.890;2023-07-09T13:41:53;33.20;54.30
26224;DHT22;14820;48.682;8.890;2023-07-09T13:44:25;33.20;55.00
26224;DHT22;14820;48.682;8.890;2023-07-09T13:46:51;33.30;55.80
26224;DHT22;14820;48.682;8.890;2023-07-09T13:49:19;33.30;55.60
26224;DHT22;14820;48.682;8.890;2023-07-09T13:51:50;33.20;55.00
26224;DHT22;14820;48.682;8.890;2023-07-09T13:54:22;33.20;56.00
26224;DHT22;14820;48.682;8.890;2023-07-09T13:56:48;33.20;56.10
26224;DHT22;14820;48.682;8.890;2023-07-09T13:59:24;33.10;55.80
26224;DHT22;14820;48.682;8.890;2023-07-09T14:01:53;33.20;55.60
26224;DHT22;14820;48.682;8.890;2023-07-09T14:04:21;33.20;55.50
26224;DHT22;14820;48.682;8.890;2023-07-09T14:06:47;33.20;54.80
26224;DHT22;14820;48.682;8.890;2023-07-09T14:09:14;33.20;55.30
26224;DHT22;14820;48.682;8.890;2023-07-09T14:11:53;33.20;55.20
26224;DHT22;14820;48.682;8.890;2023-07-09T14:14:23;33.20;55.60
26224;DHT22;14820;48.682;8.890;2023-07-09T14:16:50;33.20;55.30
26224;DHT22;14820;48.682;8.890;2023-07-09T14:19:19;33.20;54.30
26224;DHT22;14820;48.682;8.890;2023-07-09T14:21:46;33.20;53.60
26224;DHT22;14820;48.682;8.890;2023-07-09T14:24:21;33.20;53.80
26224;DHT22;14820;48.682;8.890;2023-07-09T14:26:51;33.30;55.10
26224;DHT22;14820;48.682;8.890;2023-07-09T14:29:17;33.30;53.40
26224;DHT22;14820;48.682;8.890;2023-07-09T14:31:45;33.20;52.20
26224;DHT22;14820;48.682;8.890;2023-07-09T14:34:40;33.20;52.00
26224;DHT22;14820;48.682;8.890;2023-07-09T14:37:07;33.20;52.10
26224;DHT22;14820;48.682;8.890;2023-07-09T14:39:33;33.10;50.90
26224;DHT22;14820;48.682;8.890;2023-07-09T14:41:58;33.10;51.10
26224;DHT22;14820;48.682;8.890;2023-07-09T14:44:26;33.10;51.70
26224;DHT22;14820;48.682;8.890;2023-07-09T14:46:54;33.20;50.70
26224;DHT22;14820;48.682;8.890;2023-07-09T14:49:21;33.10;51.00
26224;DHT22;14820;48.682;8.890;2023-07-09T14:51:47;33.10;50.20
26224;DHT22;14820;48.682;8.890;2023-07-09T14:54:26;33.00;49.40
26224;DHT22;14820;48.682;8.890;2023-07-09T14:56:53;33.00;49.90
26224;DHT22;14820;48.682;8.890;2023-07-09T14:59:20;33.00;49.70
26224;DHT22;14820;48.682;8.890;2023-07-09T15:01:46;33.00;49.70
26224;DHT22;14820;48.682;8.890;2023-07-09T15:06:48;33.00;49.40
26224;DHT22;14820;48.682;8.890;2023-07-09T15:09:14;33.00;50.70
26224;DHT22;14820;48.682;8.890;2023-07-09T15:11:40;33.00;50.30
26224;DHT22;14820;48.682;8.890;2023-07-09T15:14:11;33.10;50.10
26224;DHT22;14820;48.682;8.890;2023-07-09T15:16:37;33.10;50.10
26224;DHT22;14820;48.682;8.890;2023-07-09T15:19:16;33.00;50.90
26224;DHT22;14820;48.682;8.890;2023-07-09T15:21:42;32.90;50.80
26224;DHT22;14820;48.682;8.890;2023-07-09T15:27:11;32.70;51.60
26224;DHT22;14820;48.682;8.890;2023-07-09T15:29:36;32.70;52.40
26224;DHT22;14820;48.682;8.890;2023-07-09T15:32:02;32.70;51.80
26224;DHT22;14820;48.682;8.890;2023-07-09T15:34:28;32.60;52.10
26224;DHT22;14820;48.682;8.890;2023-07-09T15:36:53;32.60;52.00
26224;DHT22;14820;48.682;8.890;2023-07-09T15:39:20;32.50;52.30
26224;DHT22;14820;48.682;8.890;2023-07-09T15:41:46;32.50;52.20
26224;DHT22;14820;48.682;8.890;2023-07-09T15:44:16;32.40;52.50
26224;DHT22;14820;48.682;8.890;2023-07-09T15:46:49;32.50;53.50
26224;DHT22;14820;48.682;8.890;2023-07-09T15:49:15;32.40;53.20
26224;DHT22;14820;48.682;8.890;2023-07-09T15:51:41;32.40;53.70
26224;DHT22;14820;48.682;8.890;2023-07-09T15:54:15;32.30;53.90
26224;DHT22;14820;48.682;8.890;2023-07-09T15:56:41;32.30;53.90
26224;DHT22;14820;48.682;8.890;2023-07-09T15:59:21;32.30;54.10
26224;DHT22;14820;48.682;8.890;2023-07-09T16:01:49;32.20;54.30
26224;DHT22;14820;48.682;8.890;2023-07-09T16:04:15;32.20;54.00
26224;DHT22;14820;48.682;8.890;2023-07-09T16:06:42;32.10;54.50
26224;DHT22;14820;48.682;8.890;2023-07-09T16:09:08;32.10;55.00
26224;DHT22;14820;48.682;8.890;2023-07-09T16:11:34;32.10;55.00
26224;DHT22;14820;48.682;8.890;2023-07-09T16:14:02;32.10;54.40
26224;DHT22;14820;48.682;8.890;2023-07-09T16:16:28;32.00;54.20
26224;DHT22;14820;48.682;8.890;2023-07-09T16:18:53;32.00;55.20
26224;DHT22;14820;48.682;8.890;2023-07-09T16:21:29;32.00;54.50
26224;DHT22;14820;48.682;8.890;2023-07-09T16:23:57;31.90;53.90
26224;DHT22;14820;48.682;8.890;2023-07-09T16:26:24;31.90;54.30